createdAt,value
2023-04-18T00:02:55.708Z,98425.71
2023-04-18T00:06:22.565Z,98424.39
2023-04-18T00:09:59.085Z,98422.73
2023-04-18T00:13:38.647Z,98423.80
2023-04-18T00:17:14.547Z,98425.36
2023-04-18T00:20:54.445Z,98425.18
2023-04-18T00:24:30.137Z,98426.75
2023-04-18T00:28:08.280Z,98429.65
2023-04-18T00:31:45.562Z,98430.64
2023-04-18T00:35:43.104Z,98433.34
2023-04-18T00:39:26.303Z,98430.84
2023-04-18T00:43:14.058Z,98432.88
2023-04-18T00:46:58.927Z,98431.61
2023-04-18T00:50:24.305Z,98429.17
2023-04-18T00:54:21.330Z,98428.86
2023-04-18T00:58:05.578Z,98429.60
2023-04-18T01:01:48.994Z,98424.20
2023-04-18T01:05:35.595Z,98427.54
2023-04-18T01:09:24.386Z,98426.80
2023-04-18T01:13:16.473Z,98425.21
2023-04-18T01:16:44.253Z,98425.45
2023-04-18T01:20:22.040Z,98428.48
2023-04-18T01:24:09.174Z,98429.30
2023-04-18T01:27:58.450Z,98434.48
2023-04-18T01:31:46.729Z,98431.73
2023-04-18T01:35:37.488Z,98425.72
2023-04-18T01:39:01.934Z,98428.15
2023-04-18T01:42:58.811Z,98430.39
2023-04-18T01:46:24.822Z,98431.08
2023-04-18T01:50:01.214Z,98428.17
2023-04-18T01:53:38.670Z,98429.36
2023-04-18T01:57:38.260Z,98429.46
2023-04-18T02:01:04.235Z,98427.77
2023-04-18T02:04:41.694Z,98428.02
2023-04-18T02:08:19.114Z,98426.67
2023-04-18T02:12:15.854Z,98422.94
2023-04-18T02:15:46.044Z,98422.48
2023-04-18T02:19:40.569Z,98425.81
2023-04-18T02:23:24.090Z,98424.85
2023-04-18T02:27:07.409Z,98423.83
2023-04-18T02:30:35.045Z,98426.42
2023-04-18T02:34:11.301Z,98421.83
2023-04-18T02:37:47.361Z,98422.38
2023-04-18T02:41:24.724Z,98420.14
2023-04-18T02:45:02.751Z,98422.02
2023-04-18T02:48:40.270Z,98427.48
2023-04-18T02:52:19.310Z,98435.17
2023-04-18T02:56:16.452Z,98430.05
2023-04-18T03:00:25.102Z,98433.48
2023-04-18T03:03:58.121Z,98428.90
2023-04-18T03:07:50.869Z,98435.08
2023-04-18T03:11:29.500Z,98437.48
2023-04-18T03:15:26.408Z,98440.98
2023-04-18T03:18:52.799Z,98438.05
2023-04-18T03:22:49.848Z,98441.52
2023-04-18T03:26:39.792Z,98440.62
2023-04-18T03:30:25.716Z,98443.75
2023-04-18T03:33:51.754Z,98444.99
2023-04-18T03:37:48.309Z,98446.39
2023-04-18T03:41:20.883Z,98447.50
2023-04-18T03:44:58.613Z,98453.33
2023-04-18T03:48:37.451Z,98457.42
2023-04-18T03:52:33.038Z,98458.48
2023-04-18T03:56:20.746Z,98458.29
2023-04-18T04:00:09.695Z,98464.42
2023-04-18T04:03:51.153Z,98469.83
2023-04-18T04:07:35.869Z,98473.52
2023-04-18T04:11:25.503Z,98473.63
2023-04-18T04:14:50.442Z,98473.73
2023-04-18T04:18:46.711Z,98478.24
2023-04-18T04:22:12.158Z,98483.96
2023-04-18T04:25:49.608Z,98490.85
2023-04-18T04:29:29.119Z,98489.54
2023-04-18T04:33:28.083Z,98493.54
2023-04-18T04:37:14.465Z,98498.66
2023-04-18T04:41:11.163Z,98504.06
2023-04-18T04:45:00.042Z,98508.80
2023-04-18T04:48:25.357Z,98509.28
2023-04-18T04:52:04.175Z,98509.68
2023-04-18T04:56:01.113Z,98513.00
2023-04-18T04:59:47.196Z,98517.43
2023-04-18T05:03:30.487Z,98516.75
2023-04-18T05:07:15.233Z,98522.88
2023-04-18T05:10:58.893Z,98523.09
2023-04-18T05:14:41.984Z,98525.52
2023-04-18T05:18:08.682Z,98528.66
2023-04-18T05:22:08.011Z,98533.31
2023-04-18T05:25:33.785Z,98530.47
2023-04-18T05:29:29.970Z,98532.68
2023-04-18T05:33:13.986Z,98531.91
2023-04-18T05:37:00.134Z,98530.83
2023-04-18T05:40:27.379Z,98537.84
2023-04-18T05:44:23.509Z,98541.59
2023-04-18T05:48:06.691Z,98542.94
2023-04-18T05:51:32.030Z,98543.92
2023-04-18T05:55:27.369Z,98545.39
2023-04-18T05:59:10.716Z,98546.35
2023-04-18T06:02:35.025Z,98553.02
2023-04-18T06:06:32.334Z,98554.21
2023-04-18T06:10:17.594Z,98554.46
2023-04-18T06:13:42.997Z,98560.06
2023-04-18T06:17:40.414Z,98560.27
2023-04-18T06:21:28.382Z,98565.63
2023-04-18T06:25:15.530Z,98565.09
2023-04-18T06:28:58.851Z,98565.02
2023-04-18T06:32:24.658Z,98568.89
2023-04-18T06:36:01.529Z,98569.59
2023-04-18T06:39:57.974Z,98570.36
2023-04-18T06:43:49.173Z,98568.71
2023-04-18T06:47:42.735Z,98572.95
2023-04-18T06:51:07.065Z,98577.65
2023-04-18T06:55:03.902Z,98580.61
2023-04-18T06:58:47.837Z,98581.31
2023-04-18T07:02:31.013Z,98586.27
2023-04-18T07:06:14.531Z,98586.55
2023-04-18T07:09:38.813Z,98591.67
2023-04-18T07:13:39.866Z,98591.16
2023-04-18T07:17:23.308Z,98589.33
2023-04-18T07:21:09.050Z,98588.44
2023-04-18T07:24:34.177Z,98585.11
2023-04-18T07:28:31.827Z,98591.49
2023-04-18T07:32:15.327Z,98594.38
2023-04-18T07:36:00.272Z,98595.98
2023-04-18T07:39:24.899Z,98595.27
2023-04-18T07:43:22.849Z,98594.09
2023-04-18T07:47:10.782Z,98591.54
2023-04-18T07:50:37.722Z,98595.20
2023-04-18T07:54:33.317Z,98595.74
2023-04-18T07:57:58.030Z,98603.95
2023-04-18T08:01:54.895Z,98607.15
2023-04-18T08:05:19.980Z,98612.30
2023-04-18T08:09:15.984Z,98614.08
2023-04-18T08:12:40.847Z,98611.48
2023-04-18T08:16:17.951Z,98621.99
2023-04-18T08:20:14.918Z,98618.52
2023-04-18T08:23:58.584Z,98624.61
2023-04-18T08:27:42.625Z,98620.06
2023-04-18T08:31:36.364Z,98620.98
2023-04-18T08:35:19.496Z,98622.98
2023-04-18T08:38:47.612Z,98624.00
2023-04-18T08:42:25.121Z,98628.08
2023-04-18T08:46:23.500Z,98627.88
2023-04-18T08:50:08.780Z,98631.02
2023-04-18T08:53:34.272Z,98634.64
2023-04-18T08:57:31.072Z,98636.77
2023-04-18T09:00:55.531Z,98634.68
2023-04-18T09:04:58.748Z,98632.99
2023-04-18T09:08:24.980Z,98632.73
2023-04-18T09:12:25.658Z,98628.65
2023-04-18T09:16:09.280Z,98620.59
2023-04-18T09:19:53.807Z,98622.79
2023-04-18T09:23:39.749Z,98627.69
2023-04-18T09:27:27.565Z,98625.88
2023-04-18T09:31:15.939Z,98627.79
2023-04-18T09:34:43.657Z,98628.21
2023-04-18T09:38:18.542Z,98627.27
2023-04-18T09:42:17.340Z,98623.92
2023-04-18T09:45:42.277Z,98623.65
2023-04-18T09:49:38.214Z,98620.04
2023-04-18T09:53:02.889Z,98622.13
2023-04-18T09:56:47.016Z,98616.02
2023-04-18T10:00:43.880Z,98609.14
2023-04-18T10:04:12.632Z,98613.98
2023-04-18T10:08:08.694Z,98610.92
2023-04-18T10:11:33.243Z,98600.14
2023-04-18T10:15:30.995Z,98598.35
2023-04-18T10:18:59.302Z,98601.30
2023-04-18T10:22:55.897Z,98589.79
2023-04-18T10:26:21.068Z,98594.86
2023-04-18T10:29:58.071Z,98594.34
2023-04-18T10:37:28.950Z,98588.75
2023-04-18T10:41:27.773Z,98581.51
2023-04-18T10:45:20.027Z,98577.44
2023-04-18T10:48:44.634Z,98577.78
2023-04-18T10:52:22.309Z,98572.48
2023-04-18T10:56:01.112Z,98571.20
2023-04-18T10:59:39.658Z,98567.88
2023-04-18T11:03:15.663Z,98568.14
2023-04-18T11:07:11.841Z,98568.51
2023-04-18T11:10:36.420Z,98562.98
2023-04-18T11:14:14.297Z,98564.64
2023-04-18T11:18:10.681Z,98567.20
2023-04-18T11:21:35.190Z,98563.09
2023-04-18T11:25:36.849Z,98564.27
2023-04-18T11:29:23.615Z,98560.48
2023-04-18T11:33:16.192Z,98564.88
2023-04-18T11:36:59.641Z,98560.92
2023-04-18T11:40:24.979Z,98557.20
2023-04-18T11:44:06.320Z,98561.48
2023-04-18T11:47:41.988Z,98555.19
2023-04-18T11:51:44.700Z,98565.05
2023-04-18T11:55:29.350Z,98563.09
2023-04-18T11:58:53.895Z,98565.84
2023-04-18T12:02:46.535Z,98562.96
2023-04-18T12:06:48.311Z,98561.95
2023-04-18T12:10:32.223Z,98552.95
2023-04-18T12:13:56.905Z,98554.50
2023-04-18T12:17:38.355Z,98548.36
2023-04-18T12:21:11.784Z,98547.85
2023-04-18T12:25:13.991Z,98540.98
2023-04-18T12:28:45.210Z,98538.40
2023-04-18T12:32:37.424Z,98539.52
2023-04-18T12:36:05.625Z,98536.54
2023-04-18T12:39:41.991Z,98545.45
2023-04-18T12:43:40.469Z,98545.05
2023-04-18T12:47:08.891Z,98545.41
2023-04-18T12:51:06.395Z,98544.27
2023-04-18T12:54:34.426Z,98540.53
2023-04-18T12:58:13.191Z,98540.49
2023-04-18T13:02:06.660Z,98536.70
2023-04-18T13:05:36.357Z,98529.79
2023-04-18T13:09:12.449Z,98525.88
2023-04-18T13:12:49.838Z,98528.77
2023-04-18T13:16:44.445Z,98525.41
2023-04-18T13:20:27.785Z,98528.86
2023-04-18T13:24:11.621Z,98532.10
2023-04-18T13:27:58.076Z,98531.35
2023-04-18T13:31:22.357Z,98522.85
2023-04-18T13:35:00.891Z,98522.02
2023-04-18T13:38:56.649Z,98526.21
2023-04-18T13:42:22.342Z,98530.45
2023-04-18T13:46:19.096Z,98526.08
2023-04-18T13:49:43.210Z,98522.41
2023-04-18T13:53:41.302Z,98522.30
2023-04-18T13:57:13.403Z,98521.06
2023-04-18T14:00:43.170Z,98516.73
2023-04-18T14:04:40.156Z,98522.96
2023-04-18T14:08:23.229Z,98518.23
2023-04-18T14:12:06.566Z,98512.80
2023-04-18T14:15:51.605Z,98516.54
2023-04-18T14:19:16.064Z,98508.97
2023-04-18T14:23:12.459Z,98513.23
2023-04-18T14:26:39.535Z,98515.27
2023-04-18T14:30:33.309Z,98514.92
2023-04-18T14:34:17.611Z,98512.59
2023-04-18T14:37:43.294Z,98516.48
2023-04-18T14:41:41.622Z,98515.77
2023-04-18T14:45:08.363Z,98511.54
2023-04-18T14:48:47.310Z,98517.08
2023-04-18T14:52:21.042Z,98520.17
2023-04-18T14:56:22.666Z,98518.10
2023-04-18T14:59:49.021Z,98516.59
2023-04-18T15:03:45.048Z,98515.18
2023-04-18T15:07:32.161Z,98523.15
2023-04-18T15:10:56.543Z,98517.98
2023-04-18T15:14:36.372Z,98516.80
2023-04-18T15:18:13.820Z,98516.36
2023-04-18T15:21:50.151Z,98517.48
2023-04-18T15:25:30.028Z,98519.33
2023-04-18T15:29:10.553Z,98519.26
2023-04-18T15:32:46.027Z,98521.30
2023-04-18T15:36:39.243Z,98520.77
2023-04-18T15:40:10.403Z,98524.77
2023-04-18T15:43:46.940Z,98529.41
2023-04-18T15:47:21.261Z,98525.35
2023-04-18T15:50:58.983Z,98530.09
2023-04-18T15:54:42.823Z,98531.05
2023-04-18T15:58:14.159Z,98530.09
2023-04-18T16:01:52.275Z,98532.52
2023-04-18T16:05:48.946Z,98531.54
2023-04-18T16:09:32.444Z,98527.75
2023-04-18T16:13:16.530Z,98528.84
2023-04-18T16:16:42.322Z,98530.30
2023-04-18T16:20:23.251Z,98532.36
2023-04-18T16:23:56.366Z,98528.52
2023-04-18T16:27:54.622Z,98531.18
2023-04-18T16:31:20.840Z,98527.20
2023-04-18T16:34:58.254Z,98535.54
2023-04-18T16:38:35.756Z,98532.12
2023-04-18T16:42:15.921Z,98536.21
2023-04-18T16:45:51.098Z,98536.67
2023-04-18T16:49:48.968Z,98542.34
2023-04-18T16:53:41.299Z,98539.36
2023-04-18T16:57:28.658Z,98537.15
2023-04-18T17:00:54.947Z,98538.05
2023-04-18T17:04:33.555Z,98543.05
2023-04-18T17:08:33.551Z,98543.28
2023-04-18T17:12:22.374Z,98546.51
2023-04-18T17:15:49.858Z,98548.23
2023-04-18T17:19:46.420Z,98559.52
2023-04-18T17:23:13.961Z,98558.83
2023-04-18T17:26:51.597Z,98562.68
2023-04-18T17:30:49.415Z,98565.73
2023-04-18T17:34:32.599Z,98562.96
2023-04-18T17:37:56.775Z,98561.06
2023-04-18T17:42:12.227Z,98561.08
2023-04-18T17:45:59.272Z,98563.48
2023-04-18T17:49:45.731Z,98558.26
2023-04-18T17:53:32.026Z,98558.95
2023-04-18T17:56:58.677Z,98556.05
2023-04-18T18:00:55.842Z,98556.38
2023-04-18T18:04:25.833Z,98555.58
2023-04-18T18:08:17.619Z,98554.95
2023-04-18T18:11:44.414Z,98548.54
2023-04-18T18:15:40.491Z,98549.41
2023-04-18T18:19:23.717Z,98551.02
2023-04-18T18:22:49.965Z,98549.04
2023-04-18T18:26:46.660Z,98547.95
2023-04-18T18:30:33.213Z,98552.37
2023-04-18T18:33:59.824Z,98550.98
2023-04-18T18:37:37.807Z,98553.66
2023-04-18T18:41:15.319Z,98554.48
2023-04-18T18:44:53.028Z,98553.65
2023-04-18T18:48:51.144Z,98546.80
2023-04-18T18:52:16.018Z,98543.58
2023-04-18T18:55:54.892Z,98540.63
2023-04-18T18:59:49.991Z,98538.06
2023-04-18T19:03:36.023Z,98538.67
2023-04-18T19:07:00.921Z,98532.40
2023-04-18T19:10:39.083Z,98533.11
2023-04-18T19:14:35.342Z,98530.59
2023-04-18T19:18:00.231Z,98530.41
2023-04-18T19:21:37.456Z,98529.09
2023-04-18T19:25:18.125Z,98525.06
2023-04-18T19:29:13.553Z,98524.08
2023-04-18T19:32:42.923Z,98519.72
2023-04-18T19:36:16.534Z,98518.45
2023-04-18T19:39:54.426Z,98520.17
2023-04-18T19:43:51.130Z,98517.42
2023-04-18T19:47:17.784Z,98513.30
2023-04-18T19:50:56.640Z,98509.55
2023-04-18T19:54:33.514Z,98506.85
2023-04-18T19:58:10.783Z,98504.33
2023-04-18T20:02:07.383Z,98505.42
2023-04-18T20:05:31.684Z,98498.59
2023-04-18T20:09:16.669Z,98500.48
2023-04-18T20:12:47.699Z,98495.55
2023-04-18T20:16:24.656Z,98495.45
2023-04-18T20:20:21.235Z,98493.93
2023-04-18T20:24:08.978Z,98491.58
2023-04-18T20:27:36.052Z,98493.52
2023-04-18T20:31:30.190Z,98491.43
2023-04-18T20:34:55.286Z,98489.30
2023-04-18T20:38:36.939Z,98485.20
2023-04-18T20:42:14.560Z,98483.36
2023-04-18T20:46:07.505Z,98480.72
2023-04-18T20:49:55.866Z,98474.13
2023-04-18T20:53:21.263Z,98475.88
2023-04-18T20:56:57.677Z,98469.85
2023-04-18T21:00:36.702Z,98466.03
2023-04-18T21:04:13.387Z,98461.06
2023-04-18T21:07:50.998Z,98455.87
2023-04-18T21:11:47.193Z,98454.50
2023-04-18T21:15:12.131Z,98454.33
2023-04-18T21:18:49.120Z,98449.64
2023-04-18T21:22:26.851Z,98443.90
2023-04-18T21:26:04.822Z,98440.42
2023-04-18T21:30:07.900Z,98435.98
2023-04-18T21:33:55.304Z,98433.27
2023-04-18T21:37:20.904Z,98431.77
2023-04-18T21:40:58.293Z,98426.77
2023-04-18T21:44:55.051Z,98425.15
2023-04-18T21:48:19.299Z,98422.44
2023-04-18T21:52:15.870Z,98420.82
2023-04-18T21:55:41.256Z,98414.70
2023-04-18T21:59:39.532Z,98409.35
2023-04-18T22:03:23.785Z,98409.39
2023-04-18T22:06:49.358Z,98407.89
2023-04-18T22:10:27.443Z,98404.59
2023-04-18T22:14:07.765Z,98398.99
2023-04-18T22:17:43.114Z,98396.73
2023-04-18T22:21:38.925Z,98392.61
2023-04-18T22:25:23.516Z,98388.23
2023-04-18T22:29:06.937Z,98384.55
2023-04-18T22:32:50.269Z,98380.01
2023-04-18T22:36:14.782Z,98377.36
2023-04-18T22:39:53.838Z,98373.14
2023-04-18T22:43:32.206Z,98372.90
2023-04-18T22:47:08.595Z,98372.52
2023-04-18T22:51:06.812Z,98368.50
2023-04-18T22:54:52.496Z,98362.10
2023-04-18T22:58:17.699Z,98357.20
2023-04-18T23:02:13.362Z,98353.94
2023-04-18T23:05:57.646Z,98351.35
2023-04-18T23:09:43.035Z,98345.95
2023-04-18T23:13:10.429Z,98342.68
2023-04-18T23:17:03.830Z,98337.04
2023-04-18T23:20:28.006Z,98330.60
2023-04-18T23:24:24.612Z,98323.03
2023-04-18T23:27:50.997Z,98316.05
2023-04-18T23:31:45.278Z,98317.33
2023-04-18T23:35:28.640Z,98312.75
2023-04-18T23:39:12.162Z,98310.06
2023-04-18T23:42:56.386Z,98305.31
2023-04-18T23:46:39.309Z,98298.13
2023-04-18T23:50:03.519Z,98292.28
2023-04-18T23:54:00.023Z,98287.66
2023-04-18T23:57:43.689Z,98279.66
